Time;durP1;ratioP1;P1;durP2;ratioP2;P2;SDS_P1;SDS_P2;PMS_P1;PMS_P2;Temp;Humidity;BMP_temperature;BMP_pressure;BME280_temperature;BME280_humidity;BME280_pressure;Samples;Min_cycle;Max_cycle;Signal;HPM_P1;HPM_P2
2021/10/29 00:01:14;;;;;;;20.83;17.10;;;;;;;8.17;100.00;100191.09;5052733;28;20285;-62
2021/10/29 00:03:43;;;;;;;22.90;17.60;;;;;;;8.05;100.00;100184.69;5052781;28;20616;-62
2021/10/29 00:06:12;;;;;;;20.80;17.07;;;;;;;7.94;100.00;100169.16;5052551;28;20320;-63
2021/10/29 00:08:41;;;;;;;19.83;15.73;;;;;;;7.89;100.00;100175.16;5069755;28;20216;-63
2021/10/29 00:11:09;;;;;;;22.43;17.53;;;;;;;8.00;100.00;100179.09;5072352;28;20691;-62
2021/10/29 00:13:38;;;;;;;22.70;17.97;;;;;;;8.19;100.00;100173.75;5072484;28;20200;-63
2021/10/29 00:16:07;;;;;;;21.13;17.10;;;;;;;8.20;100.00;100171.91;5072665;28;20256;-63
2021/10/29 00:18:36;;;;;;;22.63;17.73;;;;;;;8.19;100.00;100173.75;5072699;28;20212;-62
2021/10/29 00:21:04;;;;;;;23.10;17.37;;;;;;;7.99;100.00;100164.84;5072549;28;20205;-62
2021/10/29 00:23:33;;;;;;;22.07;17.13;;;;;;;8.24;100.00;100165.13;5072567;28;20201;-63
2021/10/29 00:26:01;;;;;;;23.03;17.20;;;;;;;7.90;100.00;100171.41;5072383;28;20660;-62
2021/10/29 00:28:30;;;;;;;23.03;17.43;;;;;;;7.98;100.00;100162.38;5072538;28;20307;-62
2021/10/29 00:30:58;;;;;;;25.10;17.67;;;;;;;7.91;100.00;100159.69;5072489;28;20295;-62
2021/10/29 00:33:29;;;;;;;24.60;18.20;;;;;;;8.04;100.00;100158.88;5072442;28;20254;-63
2021/10/29 00:35:57;;;;;;;23.63;17.90;;;;;;;8.19;100.00;100157.66;5072316;28;20303;-63
2021/10/29 00:38:26;;;;;;;23.20;17.23;;;;;;;7.91;100.00;100154.31;5072312;28;20232;-63
2021/10/29 00:40:54;;;;;;;24.37;18.10;;;;;;;7.77;100.00;100149.94;5072639;28;20554;-63
2021/10/29 00:43:26;;;;;;;23.93;17.60;;;;;;;7.80;100.00;100146.00;5072556;28;20254;-63
2021/10/29 00:45:54;;;;;;;23.37;17.73;;;;;;;7.67;100.00;100154.03;5072500;28;20228;-62
2021/10/29 00:48:23;;;;;;;25.00;18.97;;;;;;;7.53;100.00;100158.50;5072265;28;20228;-63
2021/10/29 00:50:52;;;;;;;22.53;17.50;;;;;;;7.54;100.00;100165.53;5072361;28;20299;-62
2021/10/29 00:53:23;;;;;;;23.87;18.63;;;;;;;7.69;100.00;100173.41;5073585;28;20203;-63
2021/10/29 00:55:51;;;;;;;25.20;18.40;;;;;;;7.65;100.00;100161.44;5075696;28;20208;-62
2021/10/29 00:58:20;;;;;;;22.33;17.30;;;;;;;7.59;100.00;100151.53;5074813;28;20559;-64
2021/10/29 01:00:49;;;;;;;24.67;19.27;;;;;;;7.62;100.00;100153.78;5055632;28;20201;-62
2021/10/29 01:03:18;;;;;;;25.10;19.30;;;;;;;7.70;100.00;100151.75;5055853;28;20244;-63
2021/10/29 01:05:46;;;;;;;26.40;18.47;;;;;;;7.73;100.00;100158.59;5055386;28;20244;-63
2021/10/29 01:08:16;;;;;;;23.40;17.77;;;;;;;7.57;100.00;100158.94;5069286;28;20287;-63
2021/10/29 01:10:47;;;;;;;25.07;18.07;;;;;;;7.41;100.00;100150.22;5075478;28;20299;-63
2021/10/29 01:13:15;;;;;;;23.37;17.70;;;;;;;7.23;100.00;100143.75;5075780;28;20289;-62
2021/10/29 01:15:44;;;;;;;23.73;17.70;;;;;;;7.39;100.00;100146.09;5075503;28;20208;-63
2021/10/29 01:18:12;;;;;;;23.83;18.43;;;;;;;7.61;100.00;100141.44;5075387;28;20218;-63
2021/10/29 01:20:42;;;;;;;25.17;18.13;;;;;;;7.22;100.00;100145.56;5075362;28;20782;-62
2021/10/29 01:23:11;;;;;;;24.57;18.50;;;;;;;7.43;100.00;100158.88;5075175;28;20660;-63
2021/10/29 01:25:39;;;;;;;23.43;18.00;;;;;;;7.42;100.00;100159.91;5075481;28;20208;-63
2021/10/29 01:28:11;;;;;;;23.60;17.37;;;;;;;7.18;100.00;100143.50;5075221;28;20287;-63
2021/10/29 01:30:39;;;;;;;25.57;19.07;;;;;;;7.21;100.00;100141.25;5075242;28;20212;-64
2021/10/29 01:33:08;;;;;;;26.57;18.97;;;;;;;7.29;100.00;100146.44;5075321;28;20219;-62
2021/10/29 01:35:36;;;;;;;26.07;19.30;;;;;;;7.27;100.00;100139.66;5075068;28;20208;-62
2021/10/29 01:38:06;;;;;;;24.90;18.97;;;;;;;7.66;100.00;100138.97;5075151;28;20211;-62
2021/10/29 01:40:34;;;;;;;25.50;19.17;;;;;;;7.25;100.00;100142.53;5075165;28;20235;-63
2021/10/29 01:43:03;;;;;;;26.13;18.80;;;;;;;7.18;100.00;100140.81;5075150;28;20204;-62
2021/10/29 01:45:33;;;;;;;25.30;18.97;;;;;;;7.44;100.00;100140.97;5075005;28;20200;-63
2021/10/29 01:48:02;;;;;;;26.53;19.67;;;;;;;7.32;100.00;100135.31;5075045;28;20299;-62
2021/10/29 01:50:31;;;;;;;26.33;19.57;;;;;;;7.28;100.00;100136.75;5075022;28;20234;-62
2021/10/29 01:52:59;;;;;;;23.70;17.60;;;;;;;6.98;100.00;100148.75;5074702;28;20290;-63
2021/10/29 01:55:29;;;;;;;26.40;19.27;;;;;;;7.18;100.00;100141.66;5074791;28;20312;-62
2021/10/29 01:57:57;;;;;;;25.87;18.90;;;;;;;7.04;100.00;100131.88;5074524;28;20252;-62
2021/10/29 02:00:25;;;;;;;26.83;19.80;;;;;;;7.37;100.00;100135.53;5056549;28;20671;-62
2021/10/29 02:02:56;;;;;;;25.97;19.13;;;;;;;7.21;100.00;100135.06;5054975;28;20193;-62
2021/10/29 02:05:25;;;;;;;25.13;18.90;;;;;;;7.40;100.00;100128.97;5054464;28;20741;-62
2021/10/29 02:07:53;;;;;;;24.63;18.80;;;;;;;7.40;100.00;100124.47;5054155;28;20264;-63
2021/10/29 02:10:22;;;;;;;28.07;19.60;;;;;;;7.32;100.00;100123.81;5054333;28;20891;-61
2021/10/29 02:12:51;;;;;;;29.03;19.87;;;;;;;7.39;100.00;100121.97;5054421;28;20215;-62
2021/10/29 02:15:20;;;;;;;27.27;19.67;;;;;;;7.44;100.00;100122.19;5054520;28;20209;-62
2021/10/29 02:17:48;;;;;;;28.57;19.13;;;;;;;7.51;100.00;100108.81;5054499;28;20239;-62
2021/10/29 02:20:16;;;;;;;26.83;18.47;;;;;;;7.30;100.00;100117.81;5054314;28;20207;-61
2021/10/29 02:22:45;;;;;;;28.67;20.17;;;;;;;7.08;100.00;100116.25;5054184;28;20204;-63
2021/10/29 02:25:13;;;;;;;27.77;18.57;;;;;;;7.06;100.00;100104.91;5054401;28;20239;-62
2021/10/29 02:27:42;;;;;;;28.20;19.50;;;;;;;7.18;100.00;100101.47;5054304;28;20208;-62
2021/10/29 02:30:12;;;;;;;28.07;19.33;;;;;;;7.14;100.00;100097.53;5054118;28;20217;-62
2021/10/29 02:32:40;;;;;;;27.57;19.87;;;;;;;7.05;100.00;100095.22;5054180;28;20265;-62
2021/10/29 02:35:09;;;;;;;28.63;20.03;;;;;;;7.09;100.00;100107.19;5054162;28;20197;-62
2021/10/29 02:37:38;;;;;;;29.37;19.37;;;;;;;7.01;100.00;100104.69;5053827;28;20321;-61
2021/10/29 02:40:07;;;;;;;28.90;20.07;;;;;;;6.93;100.00;100092.28;5054144;28;20561;-62
2021/10/29 02:42:36;;;;;;;28.60;20.43;;;;;;;6.96;100.00;100097.25;5053824;28;20289;-62
2021/10/29 02:45:04;;;;;;;27.93;19.77;;;;;;;6.99;100.00;100094.16;5053873;28;20296;-63
2021/10/29 02:47:34;;;;;;;25.87;19.33;;;;;;;6.89;100.00;100115.13;5054133;28;20212;-62
2021/10/29 02:50:03;;;;;;;24.90;17.67;;;;;;;6.64;100.00;100103.22;5053869;28;20304;-63
2021/10/29 02:52:32;;;;;;;26.47;18.90;;;;;;;6.78;100.00;100112.16;5053756;28;20198;-62
2021/10/29 02:55:00;;;;;;;26.30;18.87;;;;;;;6.79;100.00;100100.44;5053848;28;20825;-62
2021/10/29 02:57:28;;;;;;;28.37;19.60;;;;;;;6.84;100.00;100100.66;5053725;28;20209;-62
2021/10/29 02:59:56;;;;;;;27.77;19.03;;;;;;;6.83;100.00;100099.03;5053459;28;20196;-63
2021/10/29 03:02:25;;;;;;;27.00;18.57;;;;;;;6.83;100.00;100086.44;5053627;28;20218;-62
2021/10/29 03:04:55;;;;;;;29.50;19.77;;;;;;;6.77;100.00;100097.13;5053562;28;20292;-62
2021/10/29 03:07:23;;;;;;;25.53;18.43;;;;;;;6.79;100.00;100101.25;5053003;28;20325;-63
2021/10/29 03:09:51;;;;;;;24.53;17.03;;;;;;;6.54;100.00;100105.44;5053524;28;20315;-62
2021/10/29 03:12:20;;;;;;;26.70;18.97;;;;;;;6.65;100.00;100093.31;5053303;28;20244;-63
2021/10/29 03:14:48;;;;;;;28.13;17.83;;;;;;;6.53;100.00;100098.41;5053021;28;20303;-62
2021/10/29 03:17:16;;;;;;;29.67;20.63;;;;;;;6.69;100.00;100094.59;5052910;28;20203;-63
2021/10/29 03:19:45;;;;;;;27.90;19.37;;;;;;;6.68;100.00;100091.09;5053472;28;20295;-62
2021/10/29 03:22:15;;;;;;;24.83;17.90;;;;;;;6.51;100.00;100097.75;5053149;28;20211;-62
2021/10/29 03:24:43;;;;;;;26.97;18.73;;;;;;;6.49;100.00;100093.66;5053123;28;20681;-62
2021/10/29 03:27:11;;;;;;;28.53;18.70;;;;;;;6.47;100.00;100096.53;5053277;28;20204;-62
2021/10/29 03:29:40;;;;;;;26.97;18.93;;;;;;;6.49;100.00;100091.81;5053036;28;20240;-62
2021/10/29 03:32:09;;;;;;;28.63;18.63;;;;;;;6.63;100.00;100085.50;5053106;28;20259;-62
2021/10/29 03:34:37;;;;;;;28.00;19.03;;;;;;;6.83;100.00;100091.00;5053092;28;20288;-62
2021/10/29 03:37:13;;;;;;;25.50;17.70;;;;;;;6.71;100.00;100088.03;5052835;28;20215;-63
2021/10/29 03:39:49;;;;;;;25.93;17.70;;;;;;;6.55;100.00;100088.34;5053116;28;20199;-63
2021/10/29 03:42:25;;;;;;;27.10;19.20;;;;;;;6.73;100.00;100101.22;5052969;28;20187;-62
2021/10/29 03:45:00;;;;;;;27.60;18.20;;;;;;;6.48;100.00;100090.13;5052904;28;20218;-62
2021/10/29 03:47:31;;;;;;;24.80;17.83;;;;;;;6.54;100.00;100102.75;5053025;28;20182;-62
2021/10/29 03:50:13;;;;;;;25.00;17.70;;;;;;;6.42;100.00;100098.13;5052863;28;20213;-63
2021/10/29 03:52:49;;;;;;;28.77;18.37;;;;;;;6.78;100.00;100096.13;5052570;28;20199;-62
2021/10/29 03:55:20;;;;;;;26.87;19.60;;;;;;;6.51;100.00;100097.75;5052680;28;20643;-62
2021/10/29 03:57:48;;;;;;;26.07;18.03;;;;;;;6.64;100.00;100099.72;5052880;28;20232;-61
2021/10/29 04:00:16;;;;;;;26.90;18.20;;;;;;;6.60;100.00;100101.13;5052560;28;20200;-62
2021/10/29 04:02:45;;;;;;;27.00;18.47;;;;;;;6.49;100.00;100101.66;5052800;28;20284;-62
2021/10/29 04:05:13;;;;;;;26.53;17.60;;;;;;;6.71;100.00;100098.75;5052786;28;20204;-63
2021/10/29 04:07:42;;;;;;;25.67;17.67;;;;;;;6.64;100.00;100095.19;5052014;28;20332;-62
2021/10/29 04:10:10;;;;;;;24.20;17.40;;;;;;;6.52;100.00;100107.47;5052633;28;20286;-62
2021/10/29 04:12:42;;;;;;;23.57;17.77;;;;;;;6.41;100.00;100109.84;5052676;28;20523;-62
2021/10/29 04:15:10;;;;;;;28.30;18.93;;;;;;;6.45;100.00;100103.91;5052543;28;20236;-62
2021/10/29 04:17:39;;;;;;;26.87;18.97;;;;;;;6.49;100.00;100107.84;5052246;28;20248;-62
2021/10/29 04:20:08;;;;;;;25.97;19.13;;;;;;;6.48;100.00;100097.34;5052619;28;20204;-62
2021/10/29 04:22:36;;;;;;;27.07;18.53;;;;;;;6.43;100.00;100102.47;5052319;28;20211;-61
2021/10/29 04:25:06;;;;;;;28.10;18.83;;;;;;;6.79;100.00;100105.78;5052534;28;20228;-62
2021/10/29 04:27:38;;;;;;;26.73;18.60;;;;;;;6.66;100.00;100093.16;5052530;28;20200;-62
2021/10/29 04:30:15;;;;;;;26.57;17.50;;;;;;;6.53;100.00;100106.44;5056393;28;20277;-62
2021/10/29 04:32:49;;;;;;;23.73;17.10;;;;;;;6.34;100.00;100101.78;5056640;28;20192;-62
2021/10/29 04:35:18;;;;;;;24.13;16.80;;;;;;;6.27;100.00;100102.72;5056519;28;20233;-63
2021/10/29 04:37:46;;;;;;;26.23;18.03;;;;;;;6.27;100.00;100102.72;5056303;28;20207;-62
2021/10/29 04:40:15;;;;;;;25.10;18.13;;;;;;;6.54;100.00;100093.88;5056255;28;20875;-63
2021/10/29 04:42:43;;;;;;;26.50;17.37;;;;;;;6.57;100.00;100094.31;5056321;28;20215;-63
2021/10/29 04:45:14;;;;;;;24.13;17.20;;;;;;;6.49;100.00;100091.81;5056351;28;20231;-63
2021/10/29 04:47:42;;;;;;;28.37;17.00;;;;;;;6.32;100.00;100090.44;5056279;28;20207;-63
2021/10/29 04:50:11;;;;;;;23.67;16.73;;;;;;;6.15;100.00;100089.06;5056263;28;20227;-62
2021/10/29 04:52:39;;;;;;;24.70;16.63;;;;;;;6.14;100.00;100090.91;5055953;28;20634;-62
2021/10/29 04:55:09;;;;;;;25.07;17.33;;;;;;;6.16;100.00;100085.34;5056208;28;20226;-63
2021/10/29 04:57:37;;;;;;;23.83;16.77;;;;;;;6.16;100.00;100082.69;5055797;28;20687;-62
2021/10/29 05:00:07;;;;;;;28.43;18.67;;;;;;;6.24;100.00;100079.84;5055882;28;20211;-62
2021/10/29 05:02:37;;;;;;;23.23;16.60;;;;;;;6.42;100.00;100084.75;5055616;28;20284;-62
2021/10/29 05:05:08;;;;;;;28.67;17.77;;;;;;;6.44;100.00;100082.69;5055947;28;20193;-63
2021/10/29 05:07:36;;;;;;;24.93;17.27;;;;;;;6.61;100.00;100079.53;5055395;28;20241;-63
2021/10/29 05:10:06;;;;;;;24.63;17.23;;;;;;;6.26;100.00;100082.38;5055842;28;20203;-62
2021/10/29 05:12:34;;;;;;;24.40;16.17;;;;;;;6.09;100.00;100085.31;5055704;28;20224;-62
2021/10/29 05:15:03;;;;;;;24.90;17.10;;;;;;;6.16;100.00;100085.34;5055543;28;20611;-62
2021/10/29 05:17:32;;;;;;;26.07;16.77;;;;;;;6.56;100.00;100081.13;5055665;28;20677;-63
2021/10/29 05:20:03;;;;;;;24.70;16.87;;;;;;;6.37;100.00;100089.84;5055377;28;20211;-62
2021/10/29 05:22:32;;;;;;;24.63;17.40;;;;;;;6.66;100.00;100086.97;5055258;28;20680;-63
2021/10/29 05:25:00;;;;;;;23.67;17.73;;;;;;;6.43;100.00;100086.41;5055591;28;20211;-63
2021/10/29 05:27:28;;;;;;;23.20;16.80;;;;;;;6.34;100.00;100083.06;5055482;28;20203;-63
2021/10/29 05:29:57;;;;;;;26.07;16.73;;;;;;;6.33;100.00;100089.41;5055277;28;20228;-63
2021/10/29 05:32:25;;;;;;;26.40;18.00;;;;;;;6.40;100.00;100081.44;5055328;28;20315;-62
2021/10/29 05:34:59;;;;;;;22.80;16.90;;;;;;;6.41;100.00;100077.75;5055283;28;20304;-62
2021/10/29 05:37:31;;;;;;;27.47;16.80;;;;;;;6.32;100.00;100078.91;5055081;28;20208;-63
2021/10/29 05:40:00;;;;;;;22.53;16.47;;;;;;;6.43;100.00;100079.19;5054766;28;20220;-62
2021/10/29 05:42:28;;;;;;;27.77;17.03;;;;;;;6.36;100.00;100074.81;5055161;28;20622;-62
2021/10/29 05:44:57;;;;;;;25.87;17.30;;;;;;;6.41;100.00;100069.72;5054797;28;20734;-63
2021/10/29 05:47:25;;;;;;;21.83;15.83;;;;;;;6.30;100.00;100081.78;5054899;28;20675;-63
2021/10/29 05:49:53;;;;;;;25.40;17.13;;;;;;;6.40;100.00;100068.88;5055018;28;20559;-62
2021/10/29 05:52:24;;;;;;;22.13;16.23;;;;;;;6.38;100.00;100076.28;5054749;28;20312;-61
2021/10/29 05:57:47;;;;;;;22.87;16.10;;;;;;;6.49;100.00;100078.44;5051178;28;20210;-62
2021/10/29 06:00:17;;;;;;;21.03;15.67;;;;;;;6.27;100.00;100076.81;5054728;28;20559;-64
2021/10/29 06:02:45;;;;;;;23.33;15.87;;;;;;;6.19;100.00;100083.13;5054901;28;20268;-63
2021/10/29 06:05:14;;;;;;;24.03;15.93;;;;;;;6.15;100.00;100086.38;5054826;28;20354;-62
2021/10/29 06:07:43;;;;;;;21.50;16.30;;;;;;;6.10;100.00;100081.63;5054226;28;20281;-63
2021/10/29 06:10:15;;;;;;;22.63;15.47;;;;;;;6.15;100.00;100081.03;5054639;28;20286;-62
2021/10/29 06:12:44;;;;;;;21.67;15.73;;;;;;;6.32;100.00;100076.22;5054284;28;20252;-63
2021/10/29 06:15:15;;;;;;;20.57;15.20;;;;;;;6.29;100.00;100084.66;5054457;28;20287;-65
2021/10/29 06:17:44;;;;;;;23.50;16.37;;;;;;;6.28;100.00;100086.47;5054548;28;20217;-62
2021/10/29 06:20:13;;;;;;;23.80;16.77;;;;;;;6.42;100.00;100082.91;5054410;28;20342;-64
2021/10/29 06:22:45;;;;;;;22.23;15.57;;;;;;;6.60;100.00;100082.38;5054322;28;20240;-62
2021/10/29 06:25:17;;;;;;;21.20;15.40;;;;;;;6.40;100.00;100087.59;5054053;28;20193;-63
2021/10/29 06:30:35;;;;;;;23.13;15.20;;;;;;;6.84;100.00;100092.63;5054233;28;20185;-62
2021/10/29 06:33:04;;;;;;;23.57;15.83;;;;;;;6.71;100.00;100096.06;5053833;28;20789;-62
2021/10/29 06:35:33;;;;;;;23.13;15.87;;;;;;;6.99;100.00;100096.84;5054199;28;20206;-62
2021/10/29 06:38:01;;;;;;;21.60;15.67;;;;;;;6.85;100.00;100097.78;5054025;28;20301;-63
2021/10/29 06:40:37;;;;;;;22.27;15.13;;;;;;;6.84;100.00;100093.47;5054137;28;20203;-63
2021/10/29 06:43:09;;;;;;;19.97;14.80;;;;;;;6.92;100.00;100095.13;5054006;28;20276;-63
2021/10/29 06:48:33;;;;;;;20.80;14.30;;;;;;;7.42;100.00;100100.94;5036519;28;20542;-63
2021/10/29 06:59:25;;;;;;;19.73;15.27;;;;;;;7.38;100.00;100102.38;5053182;28;20217;-64
2021/10/29 07:01:59;;;;;;;21.63;14.47;;;;;;;7.55;100.00;100093.97;5053490;28;20220;-64
2021/10/29 07:40:48;;;;;;;18.30;14.80;;;;;;;8.99;100.00;100101.06;5052701;28;20190;-62
2021/10/29 07:43:25;;;;;;;20.37;13.90;;;;;;;9.01;100.00;100098.16;5052749;28;20287;-64
2021/10/29 07:45:55;;;;;;;21.77;14.33;;;;;;;9.32;100.00;100104.47;5052584;28;20637;-63
2021/10/29 07:48:25;;;;;;;19.07;13.83;;;;;;;9.39;100.00;100096.38;5052740;28;20625;-63
2021/10/29 07:50:53;;;;;;;17.70;13.30;;;;;;;9.44;100.00;100094.69;5052721;28;20198;-63
2021/10/29 07:53:22;;;;;;;17.30;13.73;;;;;;;9.43;100.00;100106.50;5052598;28;20256;-63
2021/10/29 07:55:50;;;;;;;17.20;13.33;;;;;;;9.55;100.00;100098.59;5052599;28;20611;-63
2021/10/29 07:58:19;;;;;;;20.40;14.03;;;;;;;9.94;100.00;100097.53;5052446;28;20204;-63
2021/10/29 08:00:47;;;;;;;18.03;13.87;;;;;;;10.19;100.00;100093.88;5052602;28;20208;-63
2021/10/29 08:03:17;;;;;;;17.00;13.27;;;;;;;10.04;100.00;100100.56;5052676;28;20292;-63
2021/10/29 08:05:46;;;;;;;17.17;13.60;;;;;;;9.98;100.00;100093.38;5052647;28;20252;-63
2021/10/29 08:08:17;;;;;;;15.47;12.43;;;;;;;10.00;100.00;100091.25;5052406;28;20324;-63
2021/10/29 08:10:46;;;;;;;18.33;14.13;;;;;;;9.94;100.00;100101.06;5052126;28;20629;-63
2021/10/29 08:13:14;;;;;;;17.77;13.90;;;;;;;10.07;100.00;100083.97;5052364;28;20229;-62
2021/10/29 08:15:43;;;;;;;18.20;14.37;;;;;;;10.17;100.00;100084.34;5052324;28;20292;-63
2021/10/29 08:18:12;;;;;;;18.03;15.03;;;;;;;10.19;100.00;100083.09;5052573;28;20257;-63
2021/10/29 08:20:42;;;;;;;17.83;13.87;;;;;;;10.36;100.00;100083.38;5052607;28;20292;-62
2021/10/29 08:23:12;;;;;;;16.97;14.27;;;;;;;10.47;100.00;100088.06;5052416;28;20194;-62
2021/10/29 08:25:41;;;;;;;18.83;13.80;;;;;;;10.51;100.00;100086.56;5052417;28;20292;-64
2021/10/29 08:28:09;;;;;;;18.73;13.50;;;;;;;10.52;100.00;100090.91;5052122;28;20295;-63
2021/10/29 08:30:50;;;;;;;16.43;13.53;;;;;;;10.60;100.00;100088.75;5052272;28;20217;-63
2021/10/29 08:33:20;;;;;;;17.50;13.27;;;;;;;10.56;100.00;100084.84;5052531;28;20244;-63
2021/10/29 08:35:50;;;;;;;19.67;14.97;;;;;;;10.73;100.00;100079.72;5052186;28;20524;-63
2021/10/29 08:38:21;;;;;;;17.73;13.70;;;;;;;10.75;100.00;100093.78;5052249;28;20208;-63
2021/10/29 08:40:52;;;;;;;15.67;13.97;;;;;;;10.81;100.00;100090.19;5052467;28;20185;-62
2021/10/29 08:43:21;;;;;;;17.40;14.13;;;;;;;10.85;100.00;100091.41;5052313;28;20186;-62
2021/10/29 08:45:51;;;;;;;17.90;15.03;;;;;;;10.84;100.00;100087.88;5052328;28;20668;-63
2021/10/29 08:48:19;;;;;;;15.90;13.70;;;;;;;11.01;100.00;100088.94;5052440;28;20259;-63
2021/10/29 08:50:49;;;;;;;17.33;14.23;;;;;;;10.95;100.00;100073.69;5052482;28;20202;-62
2021/10/29 08:53:17;;;;;;;16.40;13.50;;;;;;;11.03;100.00;100075.22;5051798;28;20225;-62
2021/10/29 08:55:46;;;;;;;15.67;12.90;;;;;;;11.14;100.00;100070.97;5052246;28;20208;-64
2021/10/29 08:58:15;;;;;;;16.57;14.27;;;;;;;11.15;100.00;100073.44;5051821;28;20615;-63
2021/10/29 09:00:45;;;;;;;15.97;13.70;;;;;;;11.21;100.00;100069.03;5051901;28;20288;-63
2021/10/29 09:03:28;;;;;;;17.50;13.77;;;;;;;11.45;100.00;100066.22;5052439;28;20245;-63
2021/10/29 09:06:15;;;;;;;17.03;13.73;;;;;;;11.64;100.00;100054.38;5052155;28;20272;-62
2021/10/29 09:08:54;;;;;;;16.03;13.70;;;;;;;11.69;100.00;100064.47;5051743;28;20297;-62
2021/10/29 09:11:52;;;;;;;19.23;13.80;;;;;;;11.86;100.00;100060.91;5052082;28;20641;-63
2021/10/29 09:31:26;;;;;;;17.70;12.63;;;;;;;12.82;96.54;100017.28;5012932;28;20199;-63
2021/10/29 09:33:58;;;;;;;15.97;13.83;;;;;;;12.62;97.51;100016.81;5047786;28;20294;-63
2021/10/29 09:36:32;;;;;;;15.93;13.27;;;;;;;12.64;98.37;100017.41;5055396;28;20192;-62
2021/10/29 09:39:06;;;;;;;15.50;12.83;;;;;;;12.80;98.03;100017.50;5055190;28;20263;-63
2021/10/29 09:41:36;;;;;;;14.63;12.43;;;;;;;12.88;97.66;100014.47;5055040;28;20269;-63
2021/10/29 09:44:06;;;;;;;15.30;13.00;;;;;;;13.02;96.76;100013.13;5055322;28;20208;-62
2021/10/29 09:46:43;;;;;;;15.23;12.60;;;;;;;13.10;96.31;99999.28;5055255;28;20186;-62
2021/10/29 09:49:18;;;;;;;14.77;12.27;;;;;;;13.15;95.37;100009.34;5055068;28;20196;-65
2021/10/29 09:52:05;;;;;;;14.53;11.93;;;;;;;13.28;95.05;100015.31;5055091;28;20213;-67
2021/10/29 09:54:44;;;;;;;15.00;12.68;;;;;;;13.38;94.06;100010.09;5054800;28;20740;-65
2021/10/29 09:57:14;;;;;;;16.10;13.10;;;;;;;13.48;92.80;100004.88;5055184;28;20240;-64
2021/10/29 09:59:42;;;;;;;14.95;11.98;;;;;;;13.52;91.81;100012.50;5054789;28;20236;-65
2021/10/29 10:02:18;;;;;;;13.80;12.07;;;;;;;13.65;89.73;100010.31;5055041;28;20202;-66
2021/10/29 10:04:50;;;;;;;14.17;12.00;;;;;;;13.48;90.13;100005.94;5055062;28;20185;-66
2021/10/29 10:07:20;;;;;;;13.17;11.37;;;;;;;13.60;90.07;100010.22;5054268;28;20243;-66
2021/10/29 10:09:55;;;;;;;14.27;12.77;;;;;;;13.67;89.42;100005.50;5054588;28;20216;-66
2021/10/29 10:12:26;;;;;;;14.63;12.50;;;;;;;13.73;90.07;100001.00;5054663;28;20268;-66
2021/10/29 10:14:56;;;;;;;14.67;12.83;;;;;;;13.82;89.65;99997.63;5054599;28;20205;-66
2021/10/29 10:17:25;;;;;;;15.27;12.93;;;;;;;13.74;89.02;99995.34;5054562;28;20289;-68
2021/10/29 10:19:56;;;;;;;14.82;12.43;;;;;;;13.91;89.02;99990.75;5054299;28;20206;-67
2021/10/29 10:22:27;;;;;;;15.20;12.80;;;;;;;13.81;88.41;99987.06;5054384;28;20268;-67
2021/10/29 10:25:01;;;;;;;12.90;11.50;;;;;;;13.91;89.02;99987.22;5054479;28;20281;-65
2021/10/29 10:30:40;;;;;;;15.00;12.30;;;;;;;14.17;87.46;99983.88;5052459;28;20239;-65
2021/10/29 10:41:55;;;;;;;13.82;12.32;;;;;;;14.40;87.42;99981.00;5054298;28;20200;-66
2021/10/29 10:44:44;;;;;;;15.45;12.23;;;;;;;14.46;87.18;99983.53;5054196;28;20273;-66
2021/10/29 10:47:21;;;;;;;15.57;11.77;;;;;;;14.55;85.59;99981.22;5054072;28;20177;-67
2021/10/29 10:50:08;;;;;;;16.98;12.68;;;;;;;14.45;86.34;99981.91;5053840;28;20249;-66
2021/10/29 10:53:30;;;;;;;13.38;11.95;;;;;;;14.49;87.12;99977.59;5053911;28;20315;-66
2021/10/29 10:56:08;;;;;;;13.83;12.40;;;;;;;14.55;86.97;99973.91;5053454;28;20300;-66
2021/10/29 10:58:51;;;;;;;14.77;12.63;;;;;;;14.68;86.08;99975.44;5053513;28;20280;-67
2021/10/29 11:01:41;;;;;;;16.35;12.35;;;;;;;14.77;86.16;99967.69;5053723;28;20209;-65
2021/10/29 11:07:17;;;;;;;14.23;12.40;;;;;;;14.75;86.57;99967.94;5042564;28;20800;-67
2021/10/29 11:09:58;;;;;;;14.65;12.30;;;;;;;15.02;86.02;99965.31;5053730;28;20188;-65
2021/10/29 11:13:08;;;;;;;13.50;11.82;;;;;;;15.46;82.90;99954.16;5053547;28;20204;-66
2021/10/29 11:15:37;;;;;;;14.25;11.40;;;;;;;15.59;80.63;99950.22;5053536;28;20198;-66
2021/10/29 11:21:22;;;;;;;15.45;11.32;;;;;;;15.24;81.87;99944.38;5053328;28;20621;-67
2021/10/29 11:23:58;;;;;;;13.43;12.02;;;;;;;15.32;81.92;99941.22;5053011;28;20702;-66
2021/10/29 11:26:30;;;;;;;13.55;11.38;;;;;;;15.86;79.91;99926.56;5053226;28;20227;-65
2021/10/29 11:29:02;;;;;;;13.35;11.35;;;;;;;16.39;77.81;99931.81;5053485;28;20282;-66
2021/10/29 11:31:33;;;;;;;13.63;11.95;;;;;;;16.46;76.15;99924.28;5053179;28;20213;-66
2021/10/29 11:34:04;;;;;;;13.73;11.77;;;;;;;16.17;76.90;99920.25;5053042;28;20560;-67
2021/10/29 11:36:34;;;;;;;13.10;11.57;;;;;;;15.79;77.62;99926.78;5052582;28;20617;-67
2021/10/29 11:39:05;;;;;;;12.73;10.55;;;;;;;15.63;79.39;99921.44;5033207;28;20281;-66
2021/10/29 11:41:35;;;;;;;13.77;11.85;;;;;;;15.56;80.42;99926.25;5033270;28;20272;-66
2021/10/29 11:44:07;;;;;;;13.38;11.65;;;;;;;15.41;79.68;99915.25;5033245;28;20273;-66
2021/10/29 11:46:36;;;;;;;12.07;10.85;;;;;;;15.56;79.67;99918.13;5033008;28;20221;-66
2021/10/29 11:49:07;;;;;;;11.65;10.45;;;;;;;15.43;79.54;99911.22;5032922;28;20659;-66
2021/10/29 11:51:38;;;;;;;12.55;10.93;;;;;;;15.34;78.99;99904.59;5033120;28;20192;-66
2021/10/29 11:54:16;;;;;;;12.60;9.38;;;;;;;15.32;78.66;99911.38;5033645;28;20205;-66
2021/10/29 11:56:52;;;;;;;10.20;9.05;;;;;;;15.40;77.60;99903.59;5032817;28;20630;-65
2021/10/29 11:59:52;;;;;;;15.57;9.82;;;;;;;15.38;76.80;99899.47;5042256;28;20193;-66
2021/10/29 12:07:54;;;;;;;10.55;8.95;;;;;;;15.56;75.12;99883.66;5052207;28;20606;-66
2021/10/29 12:10:22;;;;;;;10.20;8.75;;;;;;;15.52;75.62;99873.56;5052578;28;20574;-65
2021/10/29 12:12:57;;;;;;;8.85;7.95;;;;;;;15.52;74.32;99876.28;5052506;28;20296;-66
2021/10/29 12:15:27;;;;;;;9.38;8.48;;;;;;;15.46;73.57;99874.59;5052147;28;20652;-65
2021/10/29 12:18:02;;;;;;;8.48;6.97;;;;;;;15.57;72.65;99868.19;5052888;28;20200;-65
2021/10/29 12:20:36;;;;;;;8.77;7.88;;;;;;;15.49;71.82;99863.25;5052709;28;20180;-65
2021/10/29 12:23:07;;;;;;;9.15;8.20;;;;;;;15.47;71.72;99868.09;5052598;28;20186;-66
2021/10/29 12:25:41;;;;;;;9.68;8.20;;;;;;;15.52;71.86;99852.69;5052587;28;20192;-67
2021/10/29 12:28:15;;;;;;;9.82;8.02;;;;;;;16.16;69.79;99850.66;5052301;28;20232;-66
2021/10/29 12:30:48;;;;;;;8.77;7.88;;;;;;;17.59;61.51;99843.50;5052361;28;20185;-65
2021/10/29 12:47:36;;;;;;;8.85;7.85;;;;;;;20.23;47.66;99833.31;5010137;28;20769;-66
2021/10/29 13:01:59;;;;;;;8.05;6.70;;;;;;;16.05;55.73;99797.31;5052096;28;20205;-66
2021/10/29 13:04:40;;;;;;;9.70;8.35;;;;;;;15.94;56.35;99801.09;5055877;28;20626;-66
2021/10/29 13:07:08;;;;;;;8.10;7.25;;;;;;;15.87;57.04;99803.22;5055521;28;20272;-66
2021/10/29 13:09:39;;;;;;;8.00;7.20;;;;;;;15.76;56.90;99798.81;5055681;28;20672;-66
2021/10/29 13:12:13;;;;;;;9.00;7.07;;;;;;;15.86;57.27;99793.44;5055763;28;20236;-66
2021/10/29 13:14:44;;;;;;;9.18;7.28;;;;;;;15.82;57.33;99795.03;5055787;28;20211;-66
2021/10/29 13:17:15;;;;;;;7.43;6.63;;;;;;;15.73;56.41;99793.88;5055306;28;20196;-66
2021/10/29 13:19:58;;;;;;;7.15;6.45;;;;;;;15.67;56.80;99803.09;5056109;28;20209;-66
2021/10/29 13:22:56;;;;;;;9.88;7.72;;;;;;;15.60;57.75;99795.16;5056694;28;20209;-67
2021/10/29 13:36:51;;;;;;;10.82;7.38;;;;;;;15.30;60.45;99785.94;5055020;28;20221;-67
2021/10/29 13:50:56;;;;;;;11.13;8.88;;;;;;;15.04;64.39;99778.66;5055109;28;20209;-68
2021/10/29 13:53:42;;;;;;;11.73;8.77;;;;;;;14.95;64.78;99772.88;5054515;28;20193;-67